DAOV

Ghriss Airport

Algeria
TAF DAOV 160800Z 1609/1618 17008KT CAVOK
Issued Valid From Valid To
Dec-16 @ 08:00 UTC
(4 hours ago)
Dec-16 @ 09:00 UTC
(3 hours ago)
Dec-16 @ 18:00 UTC
(in 6 hours)
Dec-16 @ 09:00 to Dec-16 @ 18:00
TAF DAOV 160800Z 1609/1618 17008KT CAVOK
Wind Visibility Clouds Conditions
170° at 8 knots 10,000+ meters
  • No significant clouds
TAF DAOV 160800Z 1609/1618 17008KT CAVOK
Issued Dec-16 @ 08:00 UTC
(4 hours ago)
Valid From Dec-16 @ 09:00 UTC
(3 hours ago)
Valid To Dec-16 @ 18:00 UTC
(in 6 hours)
Dec-16 @ 09:00 - Dec-16 @ 18:00
Wind Visibility
170° at 8 knots 10,000+ meters
Clouds
  • No significant clouds
Conditions